createdAt,value
2022-11-29T00:00:47.217Z,21.70
2022-11-29T00:03:14.680Z,21.25
2022-11-29T00:05:41.231Z,23.05
2022-11-29T00:08:07.787Z,24.75
2022-11-29T00:10:37.986Z,21.70
2022-11-29T00:13:04.595Z,22.88
2022-11-29T00:15:34.845Z,22.48
2022-11-29T00:18:01.206Z,23.10
2022-11-29T00:20:27.889Z,22.60
2022-11-29T00:22:54.344Z,23.38
2022-11-29T00:25:20.669Z,23.73
2022-11-29T00:27:47.150Z,23.80
2022-11-29T00:30:14.101Z,24.40
2022-11-29T00:32:40.467Z,23.30
2022-11-29T00:35:09.829Z,24.30
2022-11-29T00:37:36.553Z,22.17
2022-11-29T00:40:04.433Z,23.40
2022-11-29T00:42:30.838Z,25.25
2022-11-29T00:44:57.280Z,24.45
2022-11-29T00:47:23.810Z,24.15
2022-11-29T00:49:50.215Z,25.27
2022-11-29T00:52:17.631Z,24.70
2022-11-29T00:54:44.278Z,25.58
2022-11-29T00:57:10.821Z,24.92
2022-11-29T00:59:37.220Z,23.80
2022-11-29T01:02:03.608Z,23.08
2022-11-29T01:04:30.073Z,25.52
2022-11-29T01:06:56.521Z,25.25
2022-11-29T01:09:22.870Z,24.25
2022-11-29T01:11:50.208Z,23.38
2022-11-29T01:14:16.564Z,26.55
2022-11-29T01:16:43.042Z,24.20
2022-11-29T01:19:09.453Z,26.58
2022-11-29T01:21:35.958Z,24.88
2022-11-29T01:24:02.406Z,25.17
2022-11-29T01:26:30.757Z,25.65
2022-11-29T01:28:58.770Z,26.75
2022-11-29T01:31:28.190Z,27.58
2022-11-29T01:33:56.505Z,27.02
2022-11-29T01:36:23.914Z,27.60
2022-11-29T01:38:50.713Z,26.83
2022-11-29T01:41:23.505Z,25.23
2022-11-29T01:44:04.665Z,26.60
2022-11-29T01:46:40.161Z,26.83
2022-11-29T01:49:11.667Z,26.70
2022-11-29T01:51:41.596Z,28.30
2022-11-29T01:54:10.683Z,27.58
2022-11-29T01:56:38.458Z,25.67
2022-11-29T01:59:11.990Z,27.02
2022-11-29T02:01:38.575Z,24.73
2022-11-29T02:04:05.998Z,26.40
2022-11-29T02:06:33.224Z,26.42
2022-11-29T02:08:59.729Z,25.25
2022-11-29T02:12:03.767Z,26.13
2022-11-29T02:14:40.114Z,27.38
2022-11-29T02:17:34.538Z,27.65
2022-11-29T02:20:46.068Z,27.48
2022-11-29T02:23:31.562Z,26.25
2022-11-29T02:26:08.887Z,27.67
2022-11-29T02:29:21.446Z,28.98
2022-11-29T02:32:26.090Z,26.58
2022-11-29T02:35:10.973Z,27.33
2022-11-29T02:38:02.019Z,26.83
2022-11-29T02:40:34.700Z,27.83
2022-11-29T02:43:18.457Z,29.08
2022-11-29T02:46:09.724Z,28.00
2022-11-29T02:49:07.523Z,27.63
2022-11-29T02:51:49.600Z,27.55
2022-11-29T02:54:26.282Z,28.90
2022-11-29T02:57:21.568Z,29.35
2022-11-29T03:00:02.159Z,28.15
2022-11-29T03:03:10.141Z,27.73
2022-11-29T03:05:58.959Z,28.92
2022-11-29T03:08:43.966Z,28.83
2022-11-29T03:11:23.555Z,29.02
2022-11-29T03:14:08.794Z,29.80
2022-11-29T03:17:13.612Z,28.58
2022-11-29T03:19:48.789Z,27.45
2022-11-29T03:22:24.725Z,28.40
2022-11-29T03:24:58.495Z,28.00
2022-11-29T03:27:35.117Z,29.40
2022-11-29T03:30:06.398Z,28.85
2022-11-29T03:32:52.358Z,29.92
2022-11-29T03:35:42.423Z,29.17
2022-11-29T03:38:44.949Z,29.58
2022-11-29T03:41:22.937Z,29.25
2022-11-29T03:43:59.764Z,29.00
2022-11-29T03:46:38.077Z,28.52
2022-11-29T03:49:16.805Z,29.45
2022-11-29T03:52:00.942Z,28.63
2022-11-29T03:54:37.797Z,28.92
2022-11-29T03:57:04.765Z,30.20
2022-11-29T03:59:59.964Z,30.10
2022-11-29T04:03:12.423Z,28.90
2022-11-29T04:05:53.571Z,29.75
2022-11-29T04:08:40.571Z,30.17
2022-11-29T04:11:15.927Z,29.45
2022-11-29T04:13:59.763Z,29.98
2022-11-29T04:16:40.501Z,28.30
2022-11-29T04:19:28.944Z,30.17
2022-11-29T04:22:25.967Z,30.88
2022-11-29T04:25:13.337Z,30.83
2022-11-29T04:28:02.879Z,31.13
2022-11-29T04:30:42.407Z,30.90
2022-11-29T04:33:36.331Z,30.98
2022-11-29T04:37:01.200Z,27.05
2022-11-29T04:40:04.967Z,30.95
2022-11-29T04:43:00.078Z,30.15
2022-11-29T04:45:58.026Z,30.75
2022-11-29T04:48:51.594Z,32.85
2022-11-29T04:51:41.947Z,30.70
2022-11-29T04:54:23.240Z,32.65
2022-11-29T04:57:20.897Z,31.27
2022-11-29T05:00:09.707Z,31.23
2022-11-29T05:02:48.672Z,31.95
2022-11-29T05:05:42.106Z,29.80
2022-11-29T05:08:42.577Z,30.95
2022-11-29T05:11:37.881Z,30.60
2022-11-29T05:14:28.315Z,32.28
2022-11-29T05:17:19.410Z,30.23
2022-11-29T05:20:10.493Z,30.63
2022-11-29T05:22:54.174Z,30.73
2022-11-29T05:25:45.195Z,31.25
2022-11-29T05:28:38.042Z,31.98
2022-11-29T05:31:58.617Z,31.60
2022-11-29T05:34:37.132Z,31.08
2022-11-29T05:37:45.807Z,31.38
2022-11-29T05:40:24.188Z,31.10
2022-11-29T05:43:16.933Z,31.23
2022-11-29T05:45:49.532Z,30.77
2022-11-29T05:48:28.469Z,32.30
2022-11-29T05:51:13.139Z,30.80
2022-11-29T05:54:05.055Z,31.70
2022-11-29T05:56:50.899Z,30.95
2022-11-29T05:59:23.279Z,31.30
2022-11-29T06:02:06.703Z,32.63
2022-11-29T06:04:49.701Z,32.67
2022-11-29T06:07:24.629Z,31.63
2022-11-29T06:10:01.489Z,30.73
2022-11-29T06:12:34.533Z,32.90
2022-11-29T06:15:24.169Z,32.83
2022-11-29T06:18:41.583Z,31.65
2022-11-29T06:21:27.466Z,31.05
2022-11-29T06:24:18.584Z,31.42
2022-11-29T06:27:15.051Z,32.58
2022-11-29T06:29:54.254Z,32.97
2022-11-29T06:32:40.724Z,32.15
2022-11-29T06:35:09.796Z,31.90
2022-11-29T06:37:47.152Z,33.00
2022-11-29T06:40:15.846Z,32.22
2022-11-29T06:42:42.501Z,31.98
2022-11-29T06:45:13.666Z,33.13
2022-11-29T06:47:49.383Z,31.95
2022-11-29T06:50:36.987Z,32.33
2022-11-29T06:53:38.524Z,34.47
2022-11-29T06:56:21.217Z,34.42
2022-11-29T06:59:36.301Z,34.13
2022-11-29T07:02:12.517Z,33.15
2022-11-29T07:04:56.366Z,32.72
2022-11-29T07:07:23.755Z,33.00
2022-11-29T07:09:53.853Z,33.60
2022-11-29T07:12:20.752Z,31.83
2022-11-29T07:14:47.551Z,34.00
2022-11-29T07:17:34.183Z,32.17
2022-11-29T07:20:10.259Z,34.92
2022-11-29T07:22:45.279Z,32.75
2022-11-29T07:25:33.907Z,33.70
2022-11-29T07:28:13.503Z,32.50
2022-11-29T07:30:50.175Z,33.55
2022-11-29T07:33:29.078Z,33.92
2022-11-29T07:36:37.486Z,31.42
2022-11-29T07:39:21.191Z,33.72
2022-11-29T07:41:59.437Z,32.75
2022-11-29T07:44:50.428Z,32.83
2022-11-29T07:47:16.774Z,31.83
2022-11-29T07:49:43.260Z,34.47
2022-11-29T07:52:14.903Z,34.42
2022-11-29T07:54:41.578Z,34.38
2022-11-29T07:57:08.142Z,34.40
2022-11-29T07:59:34.521Z,35.00
2022-11-29T08:02:01.053Z,32.85
2022-11-29T08:04:27.455Z,35.65
2022-11-29T08:06:53.991Z,33.47
2022-11-29T08:09:20.343Z,33.35
2022-11-29T08:11:48.787Z,32.08
2022-11-29T08:14:15.216Z,33.40
2022-11-29T08:16:41.670Z,33.60
2022-11-29T08:19:08.099Z,34.00
2022-11-29T08:21:34.509Z,33.03
2022-11-29T08:24:02.090Z,34.40
2022-11-29T08:26:31.613Z,33.90
2022-11-29T08:28:58.471Z,33.15
2022-11-29T08:31:24.932Z,35.25
2022-11-29T08:33:51.399Z,34.42
2022-11-29T08:36:20.186Z,33.22
2022-11-29T08:38:47.469Z,32.38
2022-11-29T08:41:16.412Z,34.45
2022-11-29T08:43:43.581Z,34.38
2022-11-29T08:46:16.691Z,33.10
2022-11-29T08:48:44.869Z,34.83
2022-11-29T08:51:11.324Z,33.83
2022-11-29T08:53:44.705Z,34.38
2022-11-29T08:56:53.428Z,33.58
2022-11-29T08:59:00.613Z,32.45
2022-11-29T09:01:29.365Z,35.03
2022-11-29T09:04:06.986Z,34.10
2022-11-29T09:06:44.387Z,32.03
2022-11-29T09:09:10.815Z,33.38
2022-11-29T09:11:37.164Z,34.45
2022-11-29T09:14:06.654Z,33.22
2022-11-29T09:16:36.381Z,32.78
2022-11-29T09:19:04.311Z,30.48
2022-11-29T09:21:33.118Z,33.65
2022-11-29T09:24:01.527Z,32.13
2022-11-29T09:26:33.359Z,31.20
2022-11-29T09:29:01.379Z,34.05
2022-11-29T09:31:29.637Z,34.13
2022-11-29T09:33:56.506Z,33.95
2022-11-29T09:36:28.137Z,33.85
2022-11-29T09:38:55.704Z,34.90
2022-11-29T09:41:45.573Z,32.72
2022-11-29T09:44:46.169Z,32.08
2022-11-29T09:47:31.180Z,33.38
2022-11-29T09:50:27.999Z,32.25
2022-11-29T09:53:15.500Z,33.53
2022-11-29T09:55:51.549Z,35.15
2022-11-29T09:58:26.105Z,32.53
2022-11-29T10:00:58.176Z,34.70
2022-11-29T10:03:46.951Z,34.47
2022-11-29T10:06:23.153Z,33.38
2022-11-29T10:09:03.814Z,33.80
2022-11-29T10:11:36.942Z,35.58
2022-11-29T10:14:15.192Z,34.13
2022-11-29T10:16:52.527Z,34.13
2022-11-29T10:19:29.950Z,33.00
2022-11-29T10:22:04.834Z,35.92
2022-11-29T10:24:32.751Z,34.38
2022-11-29T10:26:59.294Z,33.25
2022-11-29T10:29:25.919Z,32.38
2022-11-29T10:31:56.548Z,33.20
2022-11-29T10:34:26.168Z,31.48
2022-11-29T10:37:04.382Z,33.70
2022-11-29T10:39:40.063Z,33.85
2022-11-29T10:42:35.338Z,33.60
2022-11-29T10:45:02.691Z,33.72
2022-11-29T10:47:29.291Z,33.90
2022-11-29T10:49:56.734Z,34.30
2022-11-29T10:52:23.839Z,33.42
2022-11-29T10:54:55.636Z,32.65
2022-11-29T10:57:22.799Z,32.00
2022-11-29T11:00:04.382Z,32.53
2022-11-29T11:02:31.486Z,34.30
2022-11-29T11:04:59.241Z,32.72
2022-11-29T11:07:31.180Z,33.15
2022-11-29T11:09:59.134Z,32.20
2022-11-29T11:12:32.173Z,35.35
2022-11-29T11:15:16.259Z,33.83
2022-11-29T11:17:56.498Z,33.83
2022-11-29T11:20:24.222Z,34.28
2022-11-29T11:23:06.554Z,34.55
2022-11-29T11:25:40.468Z,33.33
2022-11-29T11:28:20.303Z,34.38
2022-11-29T11:30:56.978Z,34.67
2022-11-29T11:33:49.699Z,33.67
2022-11-29T11:36:27.384Z,34.85
2022-11-29T11:38:53.687Z,33.97
2022-11-29T11:41:46.208Z,34.58
2022-11-29T11:44:49.713Z,32.72
2022-11-29T11:47:24.837Z,34.20
2022-11-29T11:50:00.214Z,34.53
2022-11-29T11:52:32.951Z,35.67
2022-11-29T11:55:07.081Z,35.92
2022-11-29T11:57:34.040Z,34.92
2022-11-29T12:00:06.799Z,33.25
2022-11-29T12:02:40.535Z,35.33
2022-11-29T12:05:19.460Z,35.17
2022-11-29T12:08:08.539Z,35.40
2022-11-29T12:10:37.510Z,34.00
2022-11-29T12:13:04.726Z,34.22
2022-11-29T12:15:38.065Z,34.60
2022-11-29T12:18:16.654Z,35.78
2022-11-29T12:21:07.097Z,35.42
2022-11-29T12:23:46.780Z,34.72
2022-11-29T12:26:56.563Z,36.28
2022-11-29T12:29:22.211Z,35.95
2022-11-29T12:31:55.176Z,35.70
2022-11-29T12:34:53.429Z,37.55
2022-11-29T12:37:34.998Z,37.88
2022-11-29T12:40:38.677Z,34.50
2022-11-29T12:43:18.041Z,32.45
2022-11-29T12:46:03.539Z,33.35
2022-11-29T12:48:47.318Z,35.42
2022-11-29T12:51:43.320Z,37.30
2022-11-29T12:54:24.775Z,35.35
2022-11-29T12:57:12.077Z,34.95
2022-11-29T12:59:55.593Z,35.53
2022-11-29T13:02:40.685Z,36.88
2022-11-29T13:05:38.308Z,35.75
2022-11-29T13:08:25.203Z,37.70
2022-11-29T13:11:08.444Z,37.15
2022-11-29T13:13:48.399Z,36.97
2022-11-29T13:16:31.793Z,37.13
2022-11-29T13:19:23.947Z,37.35
2022-11-29T13:22:02.033Z,35.95
2022-11-29T13:24:42.558Z,37.42
2022-11-29T13:27:21.436Z,38.00
2022-11-29T13:29:48.621Z,36.80
2022-11-29T13:32:31.393Z,38.88
2022-11-29T13:35:05.010Z,36.92
2022-11-29T13:37:44.786Z,37.92
2022-11-29T13:40:32.714Z,37.78
2022-11-29T13:43:30.450Z,37.88
2022-11-29T13:46:24.684Z,38.78
2022-11-29T13:48:53.532Z,37.67
2022-11-29T13:51:28.041Z,38.78
2022-11-29T13:53:56.891Z,37.33
2022-11-29T13:56:48.135Z,39.10
2022-11-29T13:59:31.523Z,38.35
2022-11-29T14:01:59.192Z,38.20
2022-11-29T14:04:45.606Z,38.78
2022-11-29T14:07:18.435Z,36.33
2022-11-29T14:09:59.298Z,40.05
2022-11-29T14:12:35.923Z,37.65
2022-11-29T14:15:32.547Z,40.45
2022-11-29T14:18:02.577Z,37.72
2022-11-29T14:20:28.847Z,40.90
2022-11-29T14:23:07.734Z,39.10
2022-11-29T14:25:53.293Z,38.60
2022-11-29T14:28:22.509Z,39.55
2022-11-29T14:30:54.213Z,37.70
2022-11-29T14:33:39.470Z,38.70
2022-11-29T14:36:14.914Z,37.63
2022-11-29T14:39:08.383Z,38.47
2022-11-29T14:42:04.082Z,38.80
2022-11-29T14:44:33.008Z,37.47
2022-11-29T14:47:02.609Z,39.60
2022-11-29T14:49:31.786Z,40.53
2022-11-29T14:52:08.653Z,38.95
2022-11-29T14:54:53.856Z,38.55
2022-11-29T14:57:51.367Z,40.60
2022-11-29T15:00:21.029Z,40.00
2022-11-29T15:03:03.297Z,39.60
2022-11-29T15:05:35.802Z,41.35
2022-11-29T15:08:10.440Z,40.92
2022-11-29T15:10:42.263Z,41.72
2022-11-29T15:13:15.207Z,41.47
2022-11-29T15:16:12.773Z,38.88
2022-11-29T15:19:07.161Z,40.17
2022-11-29T15:21:33.633Z,39.13
2022-11-29T15:24:10.866Z,39.60
2022-11-29T15:26:37.367Z,38.30
2022-11-29T15:29:18.180Z,39.83
2022-11-29T15:31:53.993Z,38.92
2022-11-29T15:34:31.535Z,41.50
2022-11-29T15:36:59.871Z,38.60
2022-11-29T15:39:34.642Z,38.35
2022-11-29T15:42:15.675Z,38.30
2022-11-29T15:44:46.911Z,39.45
2022-11-29T15:47:24.208Z,38.97
2022-11-29T15:49:51.720Z,38.38
2022-11-29T15:52:31.539Z,39.22
2022-11-29T15:55:04.591Z,37.97
2022-11-29T15:57:38.415Z,36.35
2022-11-29T16:00:07.511Z,38.03
2022-11-29T16:02:38.184Z,39.53
2022-11-29T16:05:20.231Z,39.08
2022-11-29T16:07:49.044Z,37.20
2022-11-29T16:10:22.959Z,40.10
2022-11-29T16:13:00.014Z,39.80
2022-11-29T16:15:28.597Z,38.65
2022-11-29T16:17:55.451Z,40.88
2022-11-29T16:20:24.256Z,40.42
2022-11-29T16:23:12.087Z,40.47
2022-11-29T16:26:13.156Z,41.75
2022-11-29T16:28:46.124Z,39.28
2022-11-29T16:31:18.162Z,40.92
2022-11-29T16:33:46.885Z,37.80
2022-11-29T16:36:21.511Z,40.60
2022-11-29T16:38:52.543Z,39.13
2022-11-29T16:41:21.468Z,37.28
2022-11-29T16:43:58.484Z,38.08
2022-11-29T16:46:27.802Z,38.63
2022-11-29T16:48:55.895Z,41.05
2022-11-29T16:51:48.330Z,38.92
2022-11-29T16:54:27.365Z,40.70
2022-11-29T16:56:56.339Z,39.88
2022-11-29T16:59:27.894Z,41.42
2022-11-29T17:01:56.734Z,40.25
2022-11-29T17:04:24.989Z,40.15
2022-11-29T17:06:55.916Z,40.83
2022-11-29T17:09:26.228Z,40.42
2022-11-29T17:11:53.620Z,39.28
2022-11-29T17:14:19.988Z,38.70
2022-11-29T17:16:49.198Z,40.72
2022-11-29T17:19:16.123Z,39.70
2022-11-29T17:21:42.565Z,40.33
2022-11-29T17:24:15.583Z,40.17
2022-11-29T17:26:43.255Z,42.00
2022-11-29T17:29:14.449Z,39.55
2022-11-29T17:31:43.533Z,42.05
2022-11-29T17:34:10.226Z,40.30
2022-11-29T17:36:36.617Z,41.40
2022-11-29T17:39:04.943Z,41.13
2022-11-29T17:41:32.605Z,41.60
2022-11-29T17:43:59.560Z,42.40
2022-11-29T17:46:28.945Z,42.83
2022-11-29T17:48:56.158Z,41.78
2022-11-29T17:54:11.000Z,41.25
2022-11-29T17:56:37.347Z,40.33
2022-11-29T17:59:04.367Z,41.28
2022-11-29T18:01:33.445Z,42.55
2022-11-29T18:04:01.533Z,41.30
2022-11-29T18:06:31.074Z,39.60
2022-11-29T18:08:59.417Z,41.83
2022-11-29T18:11:41.409Z,42.28
2022-11-29T18:14:12.970Z,42.33
2022-11-29T18:16:39.485Z,42.28
2022-11-29T18:19:09.131Z,41.85
2022-11-29T18:21:36.303Z,42.08
2022-11-29T18:24:04.139Z,41.45
2022-11-29T18:26:32.927Z,41.45
2022-11-29T18:29:00.075Z,42.28
2022-11-29T18:31:30.822Z,42.35
2022-11-29T18:33:59.620Z,42.70
2022-11-29T18:36:31.219Z,42.03
2022-11-29T18:39:00.346Z,42.10
2022-11-29T18:41:29.239Z,41.63
2022-11-29T18:43:58.847Z,43.20
2022-11-29T18:46:25.940Z,43.47
2022-11-29T18:48:52.821Z,45.08
2022-11-29T18:51:20.615Z,42.70
2022-11-29T18:53:47.172Z,42.10
2022-11-29T18:56:16.633Z,44.10
2022-11-29T18:58:44.844Z,43.45
2022-11-29T19:01:14.415Z,42.47
2022-11-29T19:03:47.226Z,42.42
2022-11-29T19:06:16.224Z,42.35
2022-11-29T19:08:43.121Z,42.88
2022-11-29T19:11:14.594Z,41.50
2022-11-29T19:13:41.457Z,42.35
2022-11-29T19:16:13.034Z,43.67
2022-11-29T19:18:39.749Z,41.58
2022-11-29T19:21:14.748Z,42.72
2022-11-29T19:23:44.188Z,41.10
2022-11-29T19:26:12.967Z,45.55
2022-11-29T19:28:43.947Z,42.65
2022-11-29T19:31:12.061Z,43.42
2022-11-29T19:33:40.131Z,44.35
2022-11-29T19:36:12.128Z,42.13
2022-11-29T19:38:39.553Z,42.42
2022-11-29T19:41:23.721Z,43.13
2022-11-29T19:43:50.473Z,44.03
2022-11-29T19:46:25.314Z,42.85
2022-11-29T19:48:53.530Z,42.78
2022-11-29T19:51:20.847Z,43.35
2022-11-29T19:53:51.226Z,43.53
2022-11-29T19:56:17.726Z,41.55
2022-11-29T19:58:44.611Z,43.20
2022-11-29T20:01:19.810Z,42.90
2022-11-29T20:03:46.302Z,40.90
2022-11-29T20:06:13.589Z,42.88
2022-11-29T20:08:40.923Z,44.55
2022-11-29T20:11:11.925Z,43.35
2022-11-29T20:13:39.735Z,43.72
2022-11-29T20:16:09.859Z,44.22
2022-11-29T20:18:39.759Z,41.35
2022-11-29T20:21:22.276Z,43.15
2022-11-29T20:23:49.231Z,44.17
2022-11-29T20:26:17.986Z,43.58
2022-11-29T20:28:45.001Z,42.58
2022-11-29T20:31:14.897Z,42.05
2022-11-29T20:33:45.027Z,42.35
2022-11-29T20:37:06.622Z,42.00
2022-11-29T20:39:54.013Z,42.65
2022-11-29T20:42:29.396Z,41.72
2022-11-29T20:45:01.550Z,41.00
2022-11-29T20:47:57.051Z,42.75
2022-11-29T20:50:26.803Z,43.90
2022-11-29T20:53:29.436Z,43.35
2022-11-29T20:55:56.843Z,42.47
2022-11-29T20:58:23.531Z,42.70
2022-11-29T21:00:49.977Z,41.95
2022-11-29T21:03:17.961Z,44.88
2022-11-29T21:05:44.824Z,40.08
2022-11-29T21:08:12.143Z,43.05
2022-11-29T21:10:39.408Z,43.95
2022-11-29T21:13:06.148Z,43.95
2022-11-29T21:15:32.838Z,44.63
2022-11-29T21:17:59.902Z,45.60
2022-11-29T21:20:26.905Z,46.35
2022-11-29T21:23:21.429Z,44.78
2022-11-29T21:25:59.089Z,42.83
2022-11-29T21:28:33.106Z,43.50
2022-11-29T21:30:59.824Z,42.97
2022-11-29T21:33:26.463Z,43.80
2022-11-29T21:35:55.459Z,43.15
2022-11-29T21:38:24.363Z,44.67
2022-11-29T21:40:50.958Z,43.30
2022-11-29T21:43:17.319Z,43.00
2022-11-29T21:45:47.305Z,43.15
2022-11-29T21:48:32.627Z,43.70
2022-11-29T21:50:58.980Z,41.83
2022-11-29T21:53:26.143Z,43.80
2022-11-29T21:55:59.907Z,41.13
2022-11-29T21:58:28.329Z,42.92
2022-11-29T22:00:54.735Z,42.28
2022-11-29T22:03:21.068Z,43.88
2022-11-29T22:05:47.602Z,43.67
2022-11-29T22:08:13.971Z,42.50
2022-11-29T22:10:41.270Z,42.00
2022-11-29T22:13:07.634Z,42.10
2022-11-29T22:15:35.459Z,44.33
2022-11-29T22:18:01.798Z,43.65
2022-11-29T22:20:28.338Z,42.35
2022-11-29T22:22:58.720Z,44.65
2022-11-29T22:25:25.409Z,42.20
2022-11-29T22:27:51.794Z,42.75
2022-11-29T22:30:19.378Z,42.13
2022-11-29T22:32:45.959Z,43.20
2022-11-29T22:35:12.310Z,40.35
2022-11-29T22:37:38.745Z,44.05
2022-11-29T22:40:06.253Z,44.30
2022-11-29T22:42:32.707Z,41.65
2022-11-29T22:44:59.050Z,42.42
2022-11-29T22:47:25.471Z,44.28
2022-11-29T22:49:51.830Z,43.92
2022-11-29T22:52:18.216Z,41.08
2022-11-29T22:54:44.924Z,44.05
2022-11-29T22:57:11.758Z,43.03
2022-11-29T22:59:38.142Z,41.35
2022-11-29T23:02:04.666Z,45.20
2022-11-29T23:04:31.517Z,43.75
2022-11-29T23:06:57.880Z,43.72
2022-11-29T23:09:24.334Z,42.75
2022-11-29T23:11:55.727Z,43.10
2022-11-29T23:14:24.481Z,41.40
2022-11-29T23:16:51.865Z,44.17
2022-11-29T23:19:18.695Z,43.25
2022-11-29T23:21:46.232Z,42.03
2022-11-29T23:24:14.104Z,42.85
2022-11-29T23:26:44.010Z,42.72
2022-11-29T23:29:14.007Z,43.08
2022-11-29T23:31:40.626Z,44.00
2022-11-29T23:34:07.263Z,41.40
2022-11-29T23:36:33.999Z,42.33
2022-11-29T23:39:04.374Z,42.03
2022-11-29T23:41:30.813Z,40.72
2022-11-29T23:43:59.582Z,41.75
2022-11-29T23:46:26.251Z,40.88
2022-11-29T23:48:52.662Z,41.65
2022-11-29T23:51:19.807Z,41.78
2022-11-29T23:53:51.388Z,42.47
2022-11-29T23:56:18.590Z,41.45
2022-11-29T23:58:45.199Z,41.67
